Cedar Grove, NJ (07009)

11:40 PM EDT on March 31, 2015 (GMT -0400)
Crestmont Road | | Change Station
CLOSE
Current Station
Personal Weather Station
Location: Cedar Grove, NJ
Elevation: 564 ft
Nearby Weather Stations
Active Advisory: Special Statement

Elev 564 ft 40.84 °N, 74.22 °W | Updated 21 seconds ago

Overcast
Overcast
32.4 °F
Feels Like 32 °F
N
0.0
Wind Variable Wind from North
Gusts 0.0 mph

Today
High -- | Low -- °F
--% Chance of Precip.
Yesterday
High -- | Low -- °F
Precip. -- in
6:42 AM 7:20 PM
Waxing Gibbous, 90% visible
Pressure 29.84 in
Visibility 9.0 miles
Clouds Scattered Clouds 2300 ft
Overcast 3200 ft
Windchill 32 °F
Dew Point 31 °F
Humidity 95%
Rainfall 0.05 in
Snow Depth Not available.
UV 0.0 out of 12
Pollen 6.40 out of 12
Air Quality Not available.
Flu Activity Not available.
METAR KCDW 010253Z 00000KT 9SM SCT023 OVC032 01/M01 A2982 RMK AO2 SLP104 60001 T00111006 51015

More Conditions Fewer Conditions

Pressure 29.84 in
Visibility 9.0 miles
Clouds Scattered Clouds 2300 ft
Overcast 3200 ft
Windchill 32 °F
Dew Point 31 °F
Humidity 95%
Rainfall 0.05 in
Snow Depth Not available.
UV 0.0 out of 12
Pollen 6.40 out of 12
Air Quality Not available.
Flu Activity Not available.
METAR KCDW 010253Z 00000KT 9SM SCT023 OVC032 01/M01 A2982 RMK AO2 SLP104 60001 T00111006 51015

More Conditions Fewer Conditions

10-Day Weather Forecast

Almanac

Astronomy

Mar. 31, 2015 Rise Set
Actual Time
Civil Twilight
Nautical Twilight
Astronomical Twilight
Moon
Length of Visible Light
Length of Day
Tomorrow will be .
, % of the Moon is Illuminated

Today's Extremes

State Highs State Lows

Community

WunderPhotos

Upload Photos

1,809,900 photos uploaded!

WunderBlogs® & News

Nearby

Air Quality

  Air Quality AQ Index Pollutant
Not available.

Snow Depth

Station Depth Elevation

Earthquake Activity

City Distance Mag. Time & Date
Minimum magnitude displayed is 2.5.

Coastal Water Temperatures

Place Temperature

Stations

Nearby Weather Stations

Station Location Temp. Windchill Dew Point Humidity Wind Precip. Elev Updated Type
                   
Special Statement
Statement as of 10:24 PM EDT on March 31, 2015

Temperatures will fall below freezing overnight. Patchy black ice
is possible on roadways that became wet from from earlier
precipitation. Please exercise caution when traveling tonight
into early Wednesday morning.